createdAt,value
2018-06-01T00:01:09.521Z,5.33
2018-06-01T00:03:36.165Z,4.67
2018-06-01T00:06:02.790Z,4.47
2018-06-01T00:08:29.431Z,6.67
2018-06-01T00:10:56.041Z,4.83
2018-06-01T00:13:22.667Z,4.70
2018-06-01T00:15:49.434Z,6.17
2018-06-01T00:18:16.134Z,8.13
2018-06-01T00:20:42.775Z,4.93
2018-06-01T00:23:09.396Z,6.23
2018-06-01T00:25:36.048Z,6.67
2018-06-01T00:28:02.715Z,7.53
2018-06-01T00:30:29.333Z,6.80
2018-06-01T00:32:55.973Z,6.20
2018-06-01T00:35:22.613Z,6.70
2018-06-01T00:37:49.258Z,7.60
2018-06-01T00:40:15.917Z,5.20
2018-06-01T00:42:42.540Z,5.17
2018-06-01T00:45:09.178Z,9.87
2018-06-01T00:47:35.844Z,4.53
2018-06-01T00:50:02.469Z,6.30
2018-06-01T00:52:29.116Z,5.77
2018-06-01T00:55:01.492Z,6.53
2018-06-01T00:57:28.157Z,5.80
2018-06-01T00:59:54.795Z,8.13
2018-06-01T01:02:21.448Z,5.27
2018-06-01T01:04:48.118Z,6.47
2018-06-01T01:07:14.766Z,5.33
2018-06-01T01:09:41.404Z,5.97
2018-06-01T01:12:08.051Z,6.53
2018-06-01T01:14:34.678Z,5.57
2018-06-01T01:17:01.620Z,5.87
2018-06-01T01:19:28.281Z,7.50
2018-06-01T01:21:54.999Z,5.90
2018-06-01T01:24:21.630Z,7.37
2018-06-01T01:26:48.261Z,6.17
2018-06-01T01:29:14.908Z,6.80
2018-06-01T01:31:41.535Z,5.63
2018-06-01T01:34:08.180Z,5.90
2018-06-01T01:36:34.832Z,6.97
2018-06-01T01:39:01.475Z,5.90
2018-06-01T01:41:28.108Z,5.60
2018-06-01T01:43:54.743Z,6.23
2018-06-01T01:46:21.412Z,6.47
2018-06-01T01:48:48.046Z,6.37
2018-06-01T01:51:14.709Z,6.70
2018-06-01T01:53:41.360Z,6.33
2018-06-01T01:56:08.000Z,5.70
2018-06-01T01:58:34.639Z,4.80
2018-06-01T02:01:01.304Z,5.80
2018-06-01T02:03:27.965Z,5.90
2018-06-01T02:05:54.595Z,5.20
2018-06-01T02:08:21.250Z,7.57
2018-06-01T02:10:47.909Z,10.53
2018-06-01T02:13:14.582Z,7.23
2018-06-01T02:15:41.248Z,5.70
2018-06-01T02:18:07.896Z,5.40
2018-06-01T02:20:34.572Z,7.50
2018-06-01T02:23:01.195Z,6.60
2018-06-01T02:25:27.813Z,6.23
2018-06-01T02:27:54.465Z,8.00
2018-06-01T02:30:21.105Z,6.80
2018-06-01T02:32:47.785Z,7.47
2018-06-01T02:35:14.406Z,8.30
2018-06-01T02:37:41.085Z,6.73
2018-06-01T02:40:07.753Z,7.33
2018-06-01T02:42:34.713Z,9.87
2018-06-01T02:45:01.349Z,7.67
2018-06-01T02:47:28.017Z,7.57
2018-06-01T02:49:54.688Z,7.87
2018-06-01T02:52:21.324Z,6.80
2018-06-01T02:54:47.955Z,7.53
2018-06-01T02:57:14.630Z,7.03
2018-06-01T02:59:41.276Z,7.20
2018-06-01T03:02:07.918Z,7.47
2018-06-01T03:04:34.551Z,6.97
2018-06-01T03:07:17.786Z,6.67
2018-06-01T03:09:44.406Z,7.27
2018-06-01T03:12:11.029Z,6.80
2018-06-01T03:14:37.681Z,6.60
2018-06-01T03:17:04.319Z,8.67
2018-06-01T03:19:30.975Z,6.77
2018-06-01T03:21:57.618Z,8.23
2018-06-01T03:24:24.246Z,8.67
2018-06-01T03:26:50.897Z,6.13
2018-06-01T03:29:18.036Z,5.90
2018-06-01T03:31:44.731Z,8.83
2018-06-01T03:34:11.387Z,7.00
2018-06-01T03:36:38.025Z,6.80
2018-06-01T03:39:05.557Z,6.60
2018-06-01T03:41:32.186Z,6.47
2018-06-01T03:43:58.815Z,8.27
2018-06-01T03:46:25.455Z,6.47
2018-06-01T03:48:52.082Z,6.97
2018-06-01T03:51:18.735Z,6.93
2018-06-01T03:53:45.352Z,6.47
2018-06-01T03:56:11.970Z,6.93
2018-06-01T03:58:38.615Z,8.90
2018-06-01T04:01:05.245Z,8.63
2018-06-01T04:03:31.908Z,8.03
2018-06-01T04:05:58.532Z,7.77
2018-06-01T04:08:25.162Z,6.33
2018-06-01T04:10:51.842Z,7.10
2018-06-01T04:13:18.498Z,6.87
2018-06-01T04:15:45.152Z,7.17
2018-06-01T04:18:11.776Z,7.20
2018-06-01T04:20:38.434Z,8.27
2018-06-01T04:23:05.105Z,7.80
2018-06-01T04:25:31.714Z,6.97
2018-06-01T04:27:58.408Z,8.93
2018-06-01T04:30:25.054Z,7.53
2018-06-01T04:32:51.715Z,6.80
2018-06-01T04:35:18.361Z,5.97
2018-06-01T04:37:45.009Z,9.00
2018-06-01T04:40:11.646Z,6.77
2018-06-01T04:42:38.292Z,6.60
2018-06-01T04:45:04.943Z,6.70
2018-06-01T04:47:31.583Z,8.33
2018-06-01T04:49:58.215Z,6.10
2018-06-01T04:52:24.874Z,6.27
2018-06-01T04:54:51.549Z,9.13
2018-06-01T04:57:18.188Z,7.50
2018-06-01T04:59:44.830Z,6.50
2018-06-01T05:02:11.505Z,7.13
2018-06-01T05:04:38.164Z,7.33
2018-06-01T05:07:04.805Z,6.13
2018-06-01T05:09:31.429Z,6.23
2018-06-01T05:11:58.061Z,5.90
2018-06-01T05:14:24.695Z,8.67
2018-06-01T05:16:51.352Z,7.40
2018-06-01T05:19:17.981Z,5.83
2018-06-01T05:21:44.662Z,7.87
2018-06-01T05:24:11.300Z,7.73
2018-06-01T05:26:37.937Z,8.50
2018-06-01T05:29:04.577Z,6.10
2018-06-01T05:31:31.292Z,7.27
2018-06-01T05:33:57.900Z,7.80
2018-06-01T05:36:24.519Z,8.20
2018-06-01T05:38:51.180Z,5.90
2018-06-01T05:41:17.807Z,5.33
2018-06-01T05:43:44.457Z,8.67
2018-06-01T05:46:11.107Z,6.60
2018-06-01T05:48:37.781Z,5.13
2018-06-01T05:51:04.660Z,5.10
2018-06-01T05:53:31.271Z,6.93
2018-06-01T05:55:57.897Z,5.30
2018-06-01T05:58:24.535Z,5.47
2018-06-01T06:00:51.170Z,4.40
2018-06-01T06:03:17.793Z,5.13
2018-06-01T06:05:44.468Z,5.10
2018-06-01T06:08:11.124Z,4.67
2018-06-01T06:10:37.752Z,4.83
2018-06-01T06:13:04.472Z,4.97
2018-06-01T06:15:31.028Z,5.70
2018-06-01T06:17:57.712Z,4.10
2018-06-01T06:20:24.352Z,6.77
2018-06-01T06:22:50.988Z,6.07
2018-06-01T06:25:17.616Z,6.10
2018-06-01T06:27:44.232Z,5.40
2018-06-01T06:30:11.031Z,5.57
2018-06-01T06:32:37.696Z,5.20
2018-06-01T06:35:04.306Z,6.67
2018-06-01T06:37:30.947Z,5.20
2018-06-01T06:39:57.585Z,4.93
2018-06-01T06:42:24.229Z,4.80
2018-06-01T06:44:50.855Z,6.13
2018-06-01T06:47:17.473Z,4.37
2018-06-01T06:49:44.119Z,4.27
2018-06-01T06:52:11.283Z,5.13
2018-06-01T06:54:37.940Z,4.77
2018-06-01T06:57:04.593Z,5.60
2018-06-01T06:59:31.239Z,5.13
2018-06-01T07:01:57.887Z,4.40
2018-06-01T07:04:24.537Z,5.67
2018-06-01T07:06:51.199Z,4.80
2018-06-01T07:09:17.835Z,5.27
2018-06-01T07:11:44.468Z,5.60
2018-06-01T07:14:11.107Z,3.97
2018-06-01T07:16:37.739Z,3.83
2018-06-01T07:19:04.526Z,4.33
2018-06-01T07:21:31.186Z,4.40
2018-06-01T07:23:57.869Z,3.70
2018-06-01T07:26:24.520Z,4.80
2018-06-01T07:28:51.138Z,4.53
2018-06-01T07:31:17.778Z,7.50
2018-06-01T07:33:44.404Z,4.20
2018-06-01T07:36:11.072Z,4.80
2018-06-01T07:38:37.689Z,4.40
2018-06-01T07:41:04.337Z,6.87
2018-06-01T07:43:30.997Z,4.17
2018-06-01T07:45:57.620Z,5.73
2018-06-01T07:48:24.252Z,4.90
2018-06-01T07:50:50.952Z,4.43
2018-06-01T07:53:17.597Z,5.80
2018-06-01T07:55:44.259Z,5.23
2018-06-01T07:58:10.922Z,4.30
2018-06-01T08:00:37.546Z,6.03
2018-06-01T08:03:04.182Z,5.23
2018-06-01T08:05:30.836Z,9.27
2018-06-01T08:07:57.528Z,6.30
2018-06-01T08:10:24.156Z,4.80
2018-06-01T08:12:50.787Z,4.73
2018-06-01T08:15:17.424Z,5.00
2018-06-01T08:17:44.051Z,3.70
2018-06-01T08:20:10.684Z,4.77
2018-06-01T08:22:37.348Z,4.80
2018-06-01T08:25:03.994Z,4.07
2018-06-01T08:27:30.625Z,4.67
2018-06-01T08:29:57.425Z,4.27
2018-06-01T08:32:24.091Z,4.83
2018-06-01T08:34:50.685Z,4.10
2018-06-01T08:37:17.339Z,4.20
2018-06-01T08:39:43.981Z,6.23
2018-06-01T08:42:10.692Z,4.57
2018-06-01T08:44:37.320Z,4.67
2018-06-01T08:47:03.943Z,4.30
2018-06-01T08:49:31.443Z,6.83
2018-06-01T08:51:58.106Z,5.70
2018-06-01T08:54:24.781Z,4.20
2018-06-01T08:56:51.408Z,4.63
2018-06-01T08:59:18.079Z,4.43
2018-06-01T09:01:44.794Z,4.70
2018-06-01T09:04:11.456Z,6.03
2018-06-01T09:06:38.091Z,4.50
2018-06-01T09:09:05.626Z,4.40
2018-06-01T09:11:32.265Z,4.30
2018-06-01T09:13:59.809Z,4.10
2018-06-01T09:16:26.466Z,4.97
2018-06-01T09:18:53.097Z,7.17
2018-06-01T09:21:19.735Z,4.77
2018-06-01T09:23:46.381Z,5.27
2018-06-01T09:26:13.061Z,4.73
2018-06-01T09:28:39.704Z,5.00
2018-06-01T09:31:06.357Z,4.97
2018-06-01T09:33:33.028Z,5.73
2018-06-01T09:35:59.701Z,5.20
2018-06-01T09:38:26.332Z,5.93
2018-06-01T09:40:52.966Z,5.30
2018-06-01T09:43:19.629Z,4.87
2018-06-01T09:45:46.294Z,5.37
2018-06-01T09:48:12.940Z,6.40
2018-06-01T09:50:40.492Z,5.00
2018-06-01T09:53:07.183Z,4.27
2018-06-01T09:55:34.845Z,4.73
2018-06-01T09:58:01.422Z,4.57
2018-06-01T10:00:33.837Z,4.13
2018-06-01T10:03:00.474Z,4.77
2018-06-01T10:05:27.113Z,3.70
2018-06-01T10:07:53.785Z,4.47
2018-06-01T10:10:26.162Z,4.10
2018-06-01T10:12:52.807Z,4.40
2018-06-01T10:15:19.474Z,4.77
2018-06-01T10:17:46.162Z,7.30
2018-06-01T10:20:12.791Z,4.30
2018-06-01T10:22:39.494Z,3.23
2018-06-01T10:25:06.142Z,4.03
2018-06-01T10:27:32.769Z,3.70
2018-06-01T10:29:59.421Z,4.60
2018-06-01T10:32:26.075Z,3.70
2018-06-01T10:34:52.726Z,3.63
2018-06-01T10:37:19.375Z,3.40
2018-06-01T10:39:46.029Z,3.40
2018-06-01T10:42:12.659Z,3.40
2018-06-01T10:44:39.335Z,4.03
2018-06-01T10:47:06.821Z,4.00
2018-06-01T10:49:33.468Z,2.90
2018-06-01T10:52:00.382Z,3.73
2018-06-01T10:54:27.136Z,3.50
2018-06-01T10:56:53.712Z,3.33
2018-06-01T10:59:20.359Z,3.60
2018-06-01T11:01:47.044Z,5.50
2018-06-01T11:04:13.704Z,4.47
2018-06-01T11:06:40.328Z,3.40
2018-06-01T11:09:06.991Z,3.23
2018-06-01T11:11:33.621Z,3.07
2018-06-01T11:14:00.271Z,2.90
2018-06-01T11:16:26.924Z,2.57
2018-06-01T11:18:53.558Z,2.57
2018-06-01T11:21:20.205Z,3.50
2018-06-01T11:23:47.727Z,3.50
2018-06-01T11:26:14.372Z,4.20
2018-06-01T11:28:41.002Z,4.47
2018-06-01T11:31:07.640Z,3.60
2018-06-01T11:33:34.275Z,3.93
2018-06-01T11:36:00.938Z,3.23
2018-06-01T11:38:27.597Z,3.43
2018-06-01T11:40:54.312Z,5.90
2018-06-01T11:43:20.941Z,4.50
2018-06-01T11:45:47.610Z,4.17
2018-06-01T11:48:14.277Z,3.83
2018-06-01T11:50:40.930Z,3.57
2018-06-01T11:53:07.597Z,3.90
2018-06-01T11:55:34.250Z,3.83
2018-06-01T11:58:00.884Z,4.70
2018-06-01T12:00:28.192Z,3.97
2018-06-01T12:02:54.831Z,4.27
2018-06-01T12:05:21.474Z,5.47
2018-06-01T12:07:48.125Z,5.23
2018-06-01T12:10:14.775Z,4.00
2018-06-01T12:12:41.440Z,4.20
2018-06-01T12:15:08.100Z,4.20
2018-06-01T12:17:34.798Z,3.90
2018-06-01T12:20:01.429Z,4.63
2018-06-01T12:22:28.095Z,4.93
2018-06-01T12:24:54.783Z,4.37
2018-06-01T12:27:21.432Z,4.20
2018-06-01T12:29:48.093Z,3.70
2018-06-01T12:32:14.742Z,6.83
2018-06-01T12:34:41.367Z,3.83
2018-06-01T12:37:09.132Z,3.53
2018-06-01T12:39:35.790Z,3.23
2018-06-01T12:42:02.477Z,3.37
2018-06-01T12:44:29.151Z,3.03
2018-06-01T12:46:55.773Z,3.00
2018-06-01T12:49:22.436Z,3.60
2018-06-01T12:51:49.071Z,3.60
2018-06-01T12:54:15.683Z,3.30
2018-06-01T12:56:42.319Z,3.47
2018-06-01T12:59:08.948Z,3.97
2018-06-01T13:01:35.593Z,3.57
2018-06-01T13:04:02.227Z,2.97
2018-06-01T13:06:28.858Z,3.00
2018-06-01T13:08:55.548Z,3.47
2018-06-01T13:11:22.151Z,5.30
2018-06-01T13:13:48.849Z,3.60
2018-06-01T13:16:15.486Z,5.13
2018-06-01T13:18:42.146Z,2.70
2018-06-01T13:21:08.827Z,4.97
2018-06-01T13:23:35.460Z,3.33
2018-06-01T13:26:02.096Z,3.50
2018-06-01T13:28:28.857Z,3.20
2018-06-01T13:30:55.489Z,3.00
2018-06-01T13:33:22.138Z,3.90
2018-06-01T13:35:48.760Z,3.63
2018-06-01T13:38:15.406Z,5.27
2018-06-01T13:40:42.032Z,3.60
2018-06-01T13:43:08.675Z,3.30
2018-06-01T13:45:35.341Z,3.10
2018-06-01T13:48:01.990Z,4.10
2018-06-01T13:50:28.637Z,3.40
2018-06-01T13:52:55.274Z,2.90
2018-06-01T13:55:21.943Z,3.50
2018-06-01T13:57:48.564Z,3.20
2018-06-01T14:00:15.178Z,7.93
2018-06-01T14:02:41.822Z,2.80
2018-06-01T14:05:08.445Z,2.70
2018-06-01T14:07:35.081Z,3.80
2018-06-01T14:10:01.740Z,3.00
2018-06-01T14:12:28.391Z,2.70
2018-06-01T14:14:55.044Z,3.10
2018-06-01T14:17:21.697Z,3.60
2018-06-01T14:19:48.335Z,3.20
2018-06-01T14:22:14.993Z,3.23
2018-06-01T14:24:41.810Z,3.10
2018-06-01T14:27:08.428Z,3.27
2018-06-01T14:29:35.066Z,4.20
2018-06-01T14:32:01.734Z,4.90
2018-06-01T14:34:28.366Z,4.80
2018-06-01T14:36:55.002Z,3.60
2018-06-01T14:39:21.656Z,3.87
2018-06-01T14:41:48.587Z,3.50
2018-06-01T14:44:15.238Z,3.83
2018-06-01T14:46:41.876Z,3.57
2018-06-01T14:49:08.522Z,3.13
2018-06-01T14:51:35.168Z,3.30
2018-06-01T14:54:01.808Z,4.50
2018-06-01T14:56:28.503Z,4.27
2018-06-01T14:58:55.185Z,8.77
2018-06-01T15:01:22.066Z,3.10
2018-06-01T15:03:48.692Z,8.90
2018-06-01T15:06:15.352Z,5.90
2018-06-01T15:08:42.591Z,5.90
2018-06-01T15:11:09.211Z,5.30
2018-06-01T15:13:35.872Z,4.40
2018-06-01T15:16:02.515Z,4.10
2018-06-01T15:18:29.190Z,4.70
2018-06-01T15:20:55.800Z,4.80
2018-06-01T15:23:22.463Z,4.90
2018-06-01T15:25:49.191Z,4.13
2018-06-01T15:28:15.782Z,6.57
2018-06-01T15:30:42.465Z,6.23
2018-06-01T15:33:09.118Z,7.43
2018-06-01T15:35:35.767Z,5.93
2018-06-01T15:38:02.415Z,4.60
2018-06-01T15:40:29.854Z,6.07
2018-06-01T15:42:56.480Z,4.13
2018-06-01T15:45:23.113Z,7.90
2018-06-01T15:47:49.777Z,4.40
2018-06-01T15:50:16.423Z,5.87
2018-06-01T15:52:43.121Z,4.50
2018-06-01T15:55:09.762Z,5.20
2018-06-01T15:57:36.412Z,5.43
2018-06-01T16:00:03.058Z,4.00
2018-06-01T16:02:29.687Z,3.67
2018-06-01T16:04:56.337Z,3.70
2018-06-01T16:07:22.985Z,4.00
2018-06-01T16:09:49.635Z,4.10
2018-06-01T16:12:16.313Z,4.50
2018-06-01T16:14:42.980Z,4.50
2018-06-01T16:17:09.630Z,4.03
2018-06-01T16:19:36.258Z,4.10
2018-06-01T16:22:02.921Z,3.43
2018-06-01T16:24:29.577Z,4.37
2018-06-01T16:26:56.221Z,4.13
2018-06-01T16:29:22.904Z,3.70
2018-06-01T16:31:49.604Z,3.53
2018-06-01T16:34:16.259Z,5.30
2018-06-01T16:36:42.868Z,3.53
2018-06-01T16:39:09.724Z,4.67
2018-06-01T16:41:36.355Z,3.73
2018-06-01T16:44:02.998Z,3.67
2018-06-01T16:46:29.632Z,3.67
2018-06-01T16:48:56.274Z,4.27
2018-06-01T16:51:22.935Z,4.40
2018-06-01T16:53:49.572Z,4.10
2018-06-01T16:56:16.188Z,4.00
2018-06-01T16:58:42.859Z,4.07
2018-06-01T17:01:09.512Z,3.50
2018-06-01T17:03:36.180Z,4.30
2018-06-01T17:06:02.811Z,3.83
2018-06-01T17:08:29.635Z,4.30
2018-06-01T17:10:56.272Z,4.47
2018-06-01T17:13:22.916Z,4.27
2018-06-01T17:15:49.562Z,4.27
2018-06-01T17:18:16.188Z,4.10
2018-06-01T17:20:42.848Z,4.40
2018-06-01T17:23:09.492Z,4.17
2018-06-01T17:25:36.147Z,4.23
2018-06-01T17:28:02.771Z,4.33
2018-06-01T17:30:29.452Z,3.80
2018-06-01T17:32:56.883Z,4.13
2018-06-01T17:35:23.524Z,4.73
2018-06-01T17:37:50.228Z,4.13
2018-06-01T17:40:16.840Z,3.43
2018-06-01T17:42:43.539Z,3.77
2018-06-01T17:45:10.236Z,3.63
2018-06-01T17:47:36.899Z,3.87
2018-06-01T17:50:03.514Z,3.00
2018-06-01T17:52:30.569Z,4.20
2018-06-01T17:54:57.220Z,4.20
2018-06-01T17:57:23.858Z,3.70
2018-06-01T17:59:50.517Z,3.97
2018-06-01T18:02:17.185Z,4.10
2018-06-01T18:04:44.436Z,4.00
2018-06-01T18:07:11.047Z,4.40
2018-06-01T18:09:37.685Z,4.00
2018-06-01T18:12:04.317Z,4.10
2018-06-01T18:14:30.984Z,4.00
2018-06-01T18:16:57.624Z,4.00
2018-06-01T18:19:24.262Z,3.73
2018-06-01T18:21:50.946Z,3.63
2018-06-01T18:24:17.600Z,3.90
2018-06-01T18:26:44.249Z,3.87
2018-06-01T18:29:10.869Z,3.60
2018-06-01T18:31:37.674Z,4.43
2018-06-01T18:34:04.288Z,3.60
2018-06-01T18:36:30.911Z,3.67
2018-06-01T18:38:57.648Z,3.90
2018-06-01T18:41:24.295Z,3.67
2018-06-01T18:43:51.650Z,3.97
2018-06-01T18:46:18.276Z,3.50
2018-06-01T18:48:45.039Z,4.57
2018-06-01T18:51:11.675Z,3.60
2018-06-01T18:53:38.316Z,3.67
2018-06-01T18:56:04.955Z,3.90
2018-06-01T18:58:31.580Z,3.53
2018-06-01T19:00:58.204Z,7.37
2018-06-01T19:03:24.855Z,3.70
2018-06-01T19:05:51.475Z,4.10
2018-06-01T19:08:18.149Z,3.70
2018-06-01T19:10:44.795Z,3.83
2018-06-01T19:13:11.445Z,4.20
2018-06-01T19:15:38.092Z,4.27
2018-06-01T19:18:04.736Z,4.10
2018-06-01T19:20:31.379Z,4.33
2018-06-01T19:22:58.036Z,3.33
2018-06-01T19:25:24.667Z,4.23
2018-06-01T19:27:51.329Z,4.50
2018-06-01T19:30:17.973Z,4.47
2018-06-01T19:32:44.616Z,3.70
2018-06-01T19:35:11.284Z,4.20
2018-06-01T19:37:37.922Z,4.20
2018-06-01T19:40:04.567Z,3.57
2018-06-01T19:42:31.212Z,3.43
2018-06-01T19:44:57.875Z,5.10
2018-06-01T19:47:24.528Z,4.33
2018-06-01T19:49:51.169Z,4.33
2018-06-01T19:52:17.859Z,3.40
2018-06-01T19:54:44.526Z,4.63
2018-06-01T19:57:11.188Z,3.80
2018-06-01T19:59:37.840Z,5.30
2018-06-01T20:02:04.761Z,6.30
2018-06-01T20:04:31.399Z,4.07
2018-06-01T20:06:58.068Z,5.33
2018-06-01T20:09:24.711Z,3.30
2018-06-01T20:11:51.354Z,3.83
2018-06-01T20:14:17.988Z,3.70
2018-06-01T20:16:44.709Z,4.07
2018-06-01T20:19:11.338Z,3.83
2018-06-01T20:21:37.977Z,4.30
2018-06-01T20:24:04.639Z,4.60
2018-06-01T20:26:31.264Z,3.63
2018-06-01T20:28:57.963Z,4.40
2018-06-01T20:31:24.595Z,3.50
2018-06-01T20:33:51.246Z,4.37
2018-06-01T20:36:17.898Z,3.67
2018-06-01T20:38:44.594Z,4.97
2018-06-01T20:41:11.258Z,7.70
2018-06-01T20:43:37.897Z,3.70
2018-06-01T20:46:04.692Z,5.23
2018-06-01T20:48:31.320Z,3.13
2018-06-01T20:50:57.976Z,3.67
2018-06-01T20:53:24.615Z,3.50
2018-06-01T20:55:51.253Z,3.30
2018-06-01T20:58:17.879Z,2.77
2018-06-01T21:00:44.530Z,3.90
2018-06-01T21:03:11.157Z,3.37
2018-06-01T21:05:37.809Z,3.37
2018-06-01T21:08:04.470Z,3.60
2018-06-01T21:10:31.115Z,7.47
2018-06-01T21:12:57.780Z,3.47
2018-06-01T21:15:24.421Z,3.13
2018-06-01T21:17:51.054Z,3.60
2018-06-01T21:20:17.687Z,2.93
2018-06-01T21:22:44.339Z,4.27
2018-06-01T21:25:10.988Z,4.00
2018-06-01T21:27:37.631Z,3.83
2018-06-01T21:30:05.079Z,3.20
2018-06-01T21:32:31.701Z,3.77
2018-06-01T21:34:58.373Z,3.50
2018-06-01T21:37:25.025Z,3.67
2018-06-01T21:39:51.663Z,3.43
2018-06-01T21:42:18.316Z,4.00
2018-06-01T21:44:44.929Z,3.50
2018-06-01T21:47:11.580Z,3.40
2018-06-01T21:49:38.234Z,5.17
2018-06-01T21:52:05.886Z,4.97
2018-06-01T21:54:32.553Z,3.67
2018-06-01T21:56:59.257Z,4.17
2018-06-01T21:59:25.908Z,4.03
2018-06-01T22:01:52.527Z,3.30
2018-06-01T22:04:19.200Z,5.07
2018-06-01T22:06:45.873Z,4.70
2018-06-01T22:09:12.492Z,5.80
2018-06-01T22:11:39.205Z,4.30
2018-06-01T22:14:05.838Z,4.43
2018-06-01T22:16:32.473Z,3.97
2018-06-01T22:18:59.117Z,4.17
2018-06-01T22:21:25.768Z,4.53
2018-06-01T22:23:52.383Z,4.57
2018-06-01T22:26:19.031Z,6.60
2018-06-01T22:28:45.652Z,4.80
2018-06-01T22:31:12.321Z,4.50
2018-06-01T22:33:38.946Z,4.37
2018-06-01T22:36:05.588Z,4.30
2018-06-01T22:38:32.228Z,5.73
2018-06-01T22:40:58.866Z,6.43
2018-06-01T22:43:25.515Z,4.10
2018-06-01T22:45:52.145Z,4.60
2018-06-01T22:48:18.784Z,4.60
2018-06-01T22:50:45.395Z,5.30
2018-06-01T22:53:12.054Z,4.53
2018-06-01T22:55:38.696Z,4.80
2018-06-01T22:58:05.320Z,4.90
2018-06-01T23:00:31.938Z,5.30
2018-06-01T23:02:58.591Z,5.43
2018-06-01T23:05:25.257Z,4.77
2018-06-01T23:07:52.038Z,4.03
2018-06-01T23:10:18.677Z,5.13
2018-06-01T23:12:45.297Z,4.40
2018-06-01T23:15:12.097Z,5.00
2018-06-01T23:17:38.764Z,6.13
2018-06-01T23:20:05.367Z,5.90
2018-06-01T23:22:32.026Z,4.70
2018-06-01T23:24:58.641Z,4.70
2018-06-01T23:27:25.277Z,5.60
2018-06-01T23:29:51.923Z,4.40
2018-06-01T23:32:18.536Z,4.50
2018-06-01T23:34:45.184Z,4.03
2018-06-01T23:37:11.809Z,4.47
2018-06-01T23:39:38.430Z,4.13
2018-06-01T23:42:05.084Z,4.93
2018-06-01T23:44:31.721Z,4.40
2018-06-01T23:46:58.361Z,3.97
2018-06-01T23:49:24.987Z,4.07
2018-06-01T23:51:51.610Z,5.80
2018-06-01T23:54:18.275Z,4.53
2018-06-01T23:56:44.921Z,4.40
2018-06-01T23:59:11.564Z,4.30
